Time;durP1;ratioP1;P1;durP2;ratioP2;P2;SDS_P1;SDS_P2;PMS_P1;PMS_P2;Temp;Humidity;BMP_temperature;BMP_pressure;BME280_temperature;BME280_humidity;BME280_pressure;Samples;Min_cycle;Max_cycle;Signal;HPM_P1;HPM_P2
2022/10/06 00:00:28;;;;;;;1.03;0.90;;;;;;;13.63;89.80;100691.69;5115352;28;20473;-64
2022/10/06 00:02:54;;;;;;;0.80;0.60;;;;;;;13.74;89.26;100688.78;5121642;28;20478;-64
2022/10/06 00:05:21;;;;;;;3.33;0.90;;;;;;;13.82;89.86;100700.63;5120462;28;20451;-63
2022/10/06 00:07:48;;;;;;;3.87;0.80;;;;;;;13.60;89.96;100691.16;5121623;28;20512;-64
2022/10/06 00:10:16;;;;;;;1.00;0.47;;;;;;;13.41;91.17;100700.97;5120300;28;20478;-63
2022/10/06 00:12:44;;;;;;;1.80;0.57;;;;;;;13.57;90.35;100700.34;5111197;28;20464;-64
2022/10/06 00:15:12;;;;;;;1.13;0.40;;;;;;;13.53;90.13;100697.09;5118957;28;20435;-64
2022/10/06 00:17:39;;;;;;;1.43;0.60;;;;;;;13.46;90.13;100714.81;5121232;28;20431;-64
2022/10/06 00:20:07;;;;;;;1.87;0.70;;;;;;;13.46;89.87;100719.34;5110991;28;20452;-64
2022/10/06 00:22:34;;;;;;;1.50;0.47;;;;;;;13.35;89.46;100720.38;5113355;28;20494;-64
2022/10/06 00:25:01;;;;;;;1.77;0.60;;;;;;;13.46;89.23;100722.88;5120530;28;20451;-64
2022/10/06 00:27:34;;;;;;;1.93;0.83;;;;;;;13.46;88.92;100725.56;5120534;28;20984;-64
2022/10/06 00:30:01;;;;;;;0.97;0.70;;;;;;;13.47;88.83;100732.63;5113267;28;20526;-64
2022/10/06 00:32:28;;;;;;;1.97;0.70;;;;;;;13.59;88.13;100732.44;5120372;28;20509;-64
2022/10/06 00:34:57;;;;;;;0.80;0.60;;;;;;;13.52;88.18;100730.34;5120347;28;20891;-64
2022/10/06 00:37:24;;;;;;;1.43;0.40;;;;;;;13.53;88.59;100739.25;5120311;28;21047;-64
2022/10/06 00:39:50;;;;;;;2.00;0.80;;;;;;;13.38;89.05;100741.56;5115067;28;20863;-64
2022/10/06 00:42:25;;;;;;;2.17;0.70;;;;;;;13.35;89.90;100740.03;5120521;28;20473;-64
2022/10/06 00:44:53;;;;;;;2.23;0.80;;;;;;;13.39;90.02;100743.25;5119508;28;20487;-64
2022/10/06 00:47:22;;;;;;;1.33;0.60;;;;;;;13.37;90.58;100746.09;5120220;28;20482;-65
2022/10/06 00:49:49;;;;;;;1.60;0.67;;;;;;;13.47;90.57;100753.25;5114646;28;20479;-64
2022/10/06 00:52:18;;;;;;;3.20;1.00;;;;;;;13.50;90.51;100756.50;5120056;28;20498;-65
2022/10/06 00:54:45;;;;;;;3.53;0.67;;;;;;;13.49;90.21;100751.28;5120863;28;20427;-64
2022/10/06 00:57:12;;;;;;;4.80;0.73;;;;;;;13.53;90.20;100752.69;5119853;28;20499;-65
2022/10/06 00:59:40;;;;;;;2.70;1.37;;;;;;;13.54;90.07;100760.59;5115449;28;21034;-65
2022/10/06 01:02:11;;;;;;;3.87;0.80;;;;;;;13.59;90.29;100753.91;5086679;28;20594;-65
2022/10/06 01:04:41;;;;;;;2.57;0.90;;;;;;;13.53;90.05;100758.06;5120455;28;20926;-64
2022/10/06 01:07:08;;;;;;;1.63;0.60;;;;;;;13.51;89.67;100771.63;5119842;28;20898;-65
2022/10/06 01:09:35;;;;;;;0.73;0.60;;;;;;;13.50;89.93;100769.09;5107674;28;20831;-64
2022/10/06 01:12:04;;;;;;;1.73;1.00;;;;;;;13.57;90.02;100770.19;5124004;28;20522;-65
2022/10/06 01:14:31;;;;;;;1.70;0.80;;;;;;;13.61;89.72;100773.41;5124208;28;20438;-65
2022/10/06 01:17:03;;;;;;;3.73;0.80;;;;;;;13.62;90.02;100785.88;5124332;28;20565;-65
2022/10/06 01:19:39;;;;;;;2.80;1.00;;;;;;;13.54;90.56;100792.84;5116721;28;21049;-64
2022/10/06 01:22:07;;;;;;;10.47;1.23;;;;;;;13.56;90.12;100803.44;5124026;28;20474;-65
2022/10/06 01:24:35;;;;;;;2.30;0.70;;;;;;;13.67;89.96;100795.19;5124246;28;20465;-65
2022/10/06 01:27:03;;;;;;;2.13;0.90;;;;;;;13.62;89.70;100804.69;5123938;28;20508;-65
2022/10/06 01:29:31;;;;;;;3.43;1.10;;;;;;;13.64;90.16;100789.25;5117281;28;20493;-65
2022/10/06 01:31:58;;;;;;;2.83;0.87;;;;;;;13.61;90.32;100805.66;5123639;28;20478;-65
2022/10/06 01:34:25;;;;;;;2.50;0.87;;;;;;;13.49;90.11;100813.91;5124376;28;20453;-65
2022/10/06 01:36:51;;;;;;;2.57;1.13;;;;;;;13.53;90.31;100825.22;5123820;28;20494;-64
2022/10/06 01:39:18;;;;;;;1.63;1.07;;;;;;;13.57;90.05;100818.53;5119050;28;20447;-64
2022/10/06 01:41:46;;;;;;;4.33;1.03;;;;;;;13.41;90.76;100819.16;5123636;28;20470;-65
2022/10/06 01:44:13;;;;;;;3.73;1.20;;;;;;;13.52;90.64;100827.06;5123624;28;20477;-65
2022/10/06 01:46:40;;;;;;;4.50;1.10;;;;;;;13.43;90.80;100824.38;5123173;28;20724;-65
2022/10/06 01:49:07;;;;;;;2.50;0.80;;;;;;;13.42;91.38;100825.38;5114430;28;20443;-65
2022/10/06 01:51:33;;;;;;;2.20;1.13;;;;;;;13.46;90.95;100829.47;5123461;28;20485;-65
2022/10/06 01:54:00;;;;;;;5.47;1.50;;;;;;;13.56;90.71;100847.25;5123745;28;20463;-65
2022/10/06 01:56:26;;;;;;;4.60;1.50;;;;;;;13.63;90.58;100846.69;5123408;28;20574;-65
2022/10/06 01:58:54;;;;;;;4.07;1.60;;;;;;;13.58;90.49;100848.97;5122698;28;20454;-65
2022/10/06 02:01:21;;;;;;;3.33;1.63;;;;;;;13.73;90.58;100851.03;5117298;28;20517;-66
2022/10/06 02:03:47;;;;;;;5.53;1.60;;;;;;;13.66;90.68;100859.81;5124304;28;20997;-66
2022/10/06 02:06:14;;;;;;;4.27;1.60;;;;;;;13.83;89.90;100864.41;5117280;28;20499;-66
2022/10/06 02:08:41;;;;;;;2.97;2.40;;;;;;;13.67;90.33;100866.88;5116105;28;20562;-66
2022/10/06 02:11:08;;;;;;;5.27;1.97;;;;;;;13.72;90.42;100864.63;5112087;28;20525;-66
2022/10/06 02:13:36;;;;;;;5.20;2.00;;;;;;;13.84;89.72;100876.03;5124036;28;20445;-66
2022/10/06 02:16:05;;;;;;;3.23;1.73;;;;;;;13.78;89.88;100865.84;5123270;28;20925;-66
2022/10/06 02:18:34;;;;;;;4.87;2.00;;;;;;;13.68;89.95;100880.19;5115972;28;20480;-65
2022/10/06 02:21:01;;;;;;;2.27;1.90;;;;;;;13.75;89.90;100886.66;5114556;28;21067;-65
2022/10/06 02:23:29;;;;;;;3.37;2.10;;;;;;;13.75;89.69;100888.50;5124225;28;20485;-65
2022/10/06 02:25:59;;;;;;;6.70;2.10;;;;;;;13.77;89.42;100894.59;5123518;28;20483;-64
2022/10/06 02:28:26;;;;;;;4.43;2.57;;;;;;;13.83;88.98;100893.97;5122372;28;20840;-65
2022/10/06 02:30:54;;;;;;;3.77;2.40;;;;;;;13.81;88.68;100906.72;5114970;28;20979;-65
2022/10/06 02:33:22;;;;;;;5.57;2.63;;;;;;;13.76;88.47;100911.69;5124133;28;20458;-65
2022/10/06 02:35:54;;;;;;;3.90;2.37;;;;;;;13.75;88.35;100926.13;5123296;28;21055;-65
2022/10/06 02:38:21;;;;;;;3.50;2.43;;;;;;;13.75;88.22;100921.59;5121886;28;21075;-64
2022/10/06 02:40:47;;;;;;;6.10;2.90;;;;;;;13.77;88.37;100924.16;5114985;28;21021;-65
2022/10/06 02:43:14;;;;;;;8.60;3.30;;;;;;;13.73;88.21;100922.72;5122910;28;20446;-65
2022/10/06 02:45:41;;;;;;;4.00;2.93;;;;;;;13.78;88.31;100928.50;5122298;28;20497;-65
2022/10/06 02:48:08;;;;;;;8.77;3.10;;;;;;;13.74;88.45;100933.31;5123004;28;20438;-65
2022/10/06 02:50:36;;;;;;;6.67;3.60;;;;;;;13.73;88.47;100941.53;5103754;28;20502;-65
2022/10/06 02:53:05;;;;;;;6.63;3.90;;;;;;;13.80;88.45;100933.75;5113677;28;20472;-66
2022/10/06 02:55:32;;;;;;;5.77;3.57;;;;;;;13.88;88.23;100948.16;5120947;28;20474;-65
2022/10/06 02:57:59;;;;;;;8.40;3.83;;;;;;;13.87;88.43;100953.66;5122617;28;20439;-66
2022/10/06 03:00:26;;;;;;;8.10;3.77;;;;;;;13.90;87.77;100954.22;5107894;28;20461;-65
2022/10/06 03:02:52;;;;;;;5.00;3.70;;;;;;;13.79;88.17;100957.09;5112159;28;20965;-65
2022/10/06 03:05:19;;;;;;;3.43;2.70;;;;;;;13.80;87.96;100971.38;5121937;28;20822;-65
2022/10/06 03:07:47;;;;;;;5.03;3.20;;;;;;;13.72;88.29;100970.25;5122569;28;20522;-66
2022/10/06 03:10:14;;;;;;;8.00;3.50;;;;;;;13.71;88.41;100984.69;5105254;28;20578;-65
2022/10/06 03:12:40;;;;;;;4.90;2.77;;;;;;;13.62;88.29;100972.09;5119014;28;20489;-67
2022/10/06 03:15:08;;;;;;;11.83;3.40;;;;;;;13.56;88.06;100978.91;5121246;28;20482;-66
2022/10/06 03:17:34;;;;;;;7.60;2.60;;;;;;;13.35;88.67;100979.03;5118538;28;20530;-66
2022/10/06 03:20:01;;;;;;;5.30;2.67;;;;;;;13.27;89.29;100980.72;5120949;28;20518;-66
2022/10/06 03:22:28;;;;;;;5.97;2.27;;;;;;;13.18;89.43;100985.06;5122043;28;20533;-65
2022/10/06 03:24:55;;;;;;;4.33;1.50;;;;;;;13.27;88.62;100992.28;5122198;28;20516;-66
2022/10/06 03:27:22;;;;;;;3.97;2.00;;;;;;;13.29;88.39;100992.16;5104945;28;20502;-66
2022/10/06 03:29:50;;;;;;;6.40;1.70;;;;;;;13.25;88.46;101002.31;5112512;28;20601;-65
2022/10/06 03:32:16;;;;;;;4.87;1.50;;;;;;;13.24;87.83;100997.94;5120821;28;20474;-65
2022/10/06 03:34:45;;;;;;;3.43;1.80;;;;;;;13.33;87.37;101001.66;5121403;28;20482;-64
2022/10/06 03:37:12;;;;;;;3.80;1.40;;;;;;;13.41;86.80;100999.13;5119171;28;20484;-65
2022/10/06 03:39:39;;;;;;;3.40;1.23;;;;;;;13.24;86.62;101008.66;5122353;28;20465;-65
2022/10/06 03:42:07;;;;;;;3.40;1.47;;;;;;;13.39;86.47;101019.91;5120986;28;20484;-65
2022/10/06 03:44:36;;;;;;;5.00;1.50;;;;;;;13.26;86.43;101028.19;5121285;28;20478;-65
2022/10/06 03:47:03;;;;;;;5.80;2.07;;;;;;;13.42;85.80;101030.38;5108405;28;20483;-65
2022/10/06 03:49:30;;;;;;;3.00;1.40;;;;;;;13.35;85.96;101027.38;5101038;28;20985;-65
2022/10/06 03:51:56;;;;;;;6.83;1.73;;;;;;;13.33;85.10;101032.06;5114368;28;20483;-65
2022/10/06 03:54:23;;;;;;;7.83;1.63;;;;;;;13.34;85.47;101046.31;5121813;28;20467;-65
2022/10/06 03:56:50;;;;;;;7.33;1.87;;;;;;;13.22;85.36;101034.81;5110138;28;20482;-65
2022/10/06 03:59:18;;;;;;;6.80;2.03;;;;;;;13.25;85.18;101047.13;5101266;28;20502;-64
2022/10/06 04:01:46;;;;;;;8.03;1.87;;;;;;;13.33;84.84;101056.22;5107423;28;20570;-66
2022/10/06 04:04:13;;;;;;;5.43;1.57;;;;;;;13.24;84.82;101050.78;5098131;28;20566;-66
2022/10/06 04:06:42;;;;;;;7.23;1.40;;;;;;;13.12;85.46;101056.28;5096998;28;20547;-65
2022/10/06 04:09:13;;;;;;;11.93;1.90;;;;;;;12.99;85.51;101058.38;5100471;28;20486;-65
2022/10/06 04:11:40;;;;;;;8.70;1.53;;;;;;;12.90;85.49;101064.56;5103676;28;20478;-66
2022/10/06 04:14:09;;;;;;;7.40;1.90;;;;;;;12.90;85.55;101068.09;5099653;28;20443;-65
2022/10/06 04:16:38;;;;;;;6.67;1.93;;;;;;;12.77;86.22;101068.31;5105043;28;20502;-65
2022/10/06 04:19:08;;;;;;;9.93;2.40;;;;;;;12.76;86.28;101066.63;5101798;28;20478;-65
2022/10/06 04:21:36;;;;;;;7.80;2.00;;;;;;;12.63;86.37;101080.25;5099978;28;20463;-65
2022/10/06 04:24:03;;;;;;;11.60;2.33;;;;;;;12.42;87.16;101072.22;5100843;28;20443;-66
2022/10/06 04:26:32;;;;;;;13.33;1.77;;;;;;;12.38;87.41;101080.69;5096374;28;20554;-66
2022/10/06 04:29:01;;;;;;;8.70;1.90;;;;;;;12.41;87.03;101085.75;5099340;28;20463;-69
2022/10/06 04:31:30;;;;;;;8.30;1.47;;;;;;;12.33;87.39;101086.44;5097461;28;20993;-69
2022/10/06 04:33:59;;;;;;;6.90;1.33;;;;;;;12.33;87.65;101102.53;5101906;28;20542;-69
2022/10/06 04:36:28;;;;;;;8.93;1.70;;;;;;;12.24;87.88;101098.78;5113950;28;20563;-69
2022/10/06 04:38:57;;;;;;;7.97;1.50;;;;;;;12.19;88.27;101110.91;5107118;28;20464;-69
2022/10/06 04:41:25;;;;;;;6.50;2.07;;;;;;;12.24;87.71;101112.19;5102625;28;20495;-68
2022/10/06 04:43:52;;;;;;;8.97;1.97;;;;;;;12.21;87.84;101114.28;5119686;28;20450;-69
2022/10/06 04:46:20;;;;;;;6.07;1.80;;;;;;;12.21;87.81;101116.97;5114612;28;20479;-69
2022/10/06 04:48:47;;;;;;;5.70;1.73;;;;;;;12.08;88.37;101121.66;5100471;28;20504;-68
2022/10/06 04:51:16;;;;;;;9.37;2.07;;;;;;;12.04;88.48;101129.13;5120142;28;20474;-69
2022/10/06 04:53:44;;;;;;;9.30;1.90;;;;;;;12.01;88.84;101140.97;5120594;28;20481;-68
2022/10/06 04:56:12;;;;;;;6.13;1.43;;;;;;;12.00;88.43;101143.75;5093139;28;20486;-68
2022/10/06 04:58:39;;;;;;;6.80;2.30;;;;;;;11.90;88.91;101145.47;5099005;28;20452;-69
2022/10/06 05:01:13;;;;;;;5.13;2.10;;;;;;;11.96;88.87;101153.00;5105713;28;20534;-69
2022/10/06 05:03:40;;;;;;;4.80;1.60;;;;;;;11.87;89.05;101157.28;5119561;28;20560;-69
2022/10/06 05:06:08;;;;;;;6.80;1.60;;;;;;;11.82;89.10;101160.34;5116421;28;21057;-69
2022/10/06 05:08:37;;;;;;;12.07;2.20;;;;;;;11.90;88.93;101173.09;5110232;28;20478;-68
2022/10/06 05:11:06;;;;;;;7.53;1.70;;;;;;;11.85;88.76;101186.03;5111673;28;20475;-69
2022/10/06 05:13:32;;;;;;;12.17;2.57;;;;;;;11.82;89.24;101186.28;5099290;28;20494;-69
2022/10/06 05:16:00;;;;;;;9.43;1.93;;;;;;;11.93;88.77;101186.28;5098566;28;20528;-66
2022/10/06 05:18:28;;;;;;;19.03;3.53;;;;;;;11.77;88.86;101186.66;5099247;28;20462;-65
2022/10/06 05:20:56;;;;;;;9.60;2.50;;;;;;;11.80;88.59;101188.22;5115367;28;20613;-68
2022/10/06 05:23:23;;;;;;;11.73;1.70;;;;;;;11.86;87.92;101193.09;5115215;28;20459;-68
2022/10/06 05:25:52;;;;;;;7.40;1.80;;;;;;;11.87;87.88;101190.31;5099090;28;20530;-68
2022/10/06 05:28:18;;;;;;;10.17;1.80;;;;;;;11.80;87.85;101193.59;5102816;28;20448;-68
2022/10/06 05:30:55;;;;;;;7.87;1.90;;;;;;;11.73;87.74;101208.47;5101528;28;20494;-68
2022/10/06 05:33:22;;;;;;;8.10;1.90;;;;;;;11.86;87.42;101206.50;5099244;28;20443;-68
2022/10/06 05:35:52;;;;;;;7.97;2.50;;;;;;;11.79;87.17;101206.16;5101261;28;20483;-68
2022/10/06 05:38:19;;;;;;;13.03;2.03;;;;;;;11.79;87.04;101235.63;5101421;28;20459;-68
2022/10/06 05:40:46;;;;;;;11.83;2.30;;;;;;;11.95;86.69;101224.53;5097914;28;20497;-68
2022/10/06 05:43:14;;;;;;;9.63;2.03;;;;;;;11.84;86.39;101227.22;5098792;28;20969;-69
2022/10/06 05:45:41;;;;;;;12.77;2.00;;;;;;;11.94;86.14;101225.50;5097504;28;20573;-69
2022/10/06 05:48:09;;;;;;;9.23;1.93;;;;;;;11.85;86.03;101243.13;5098998;28;20436;-68
2022/10/06 05:50:35;;;;;;;9.90;1.60;;;;;;;11.94;85.88;101249.59;5098943;28;20510;-67
2022/10/06 05:53:02;;;;;;;13.67;2.57;;;;;;;12.00;85.35;101251.81;5095307;28;20457;-68
2022/10/06 05:55:30;;;;;;;12.20;2.07;;;;;;;12.08;84.78;101259.19;5098539;28;20505;-67
2022/10/06 05:57:57;;;;;;;7.60;2.43;;;;;;;12.10;85.15;101264.44;5102963;28;20474;-69
2022/10/06 06:00:25;;;;;;;10.30;2.17;;;;;;;12.21;84.41;101277.84;5100509;28;20472;-69
2022/10/06 06:02:51;;;;;;;8.07;1.87;;;;;;;12.04;84.35;101277.38;5102960;28;20463;-68
2022/10/06 06:05:18;;;;;;;11.37;2.10;;;;;;;12.08;84.70;101293.22;5102860;28;20447;-69
2022/10/06 06:07:45;;;;;;;10.70;2.37;;;;;;;12.07;84.56;101288.84;5101940;28;20487;-68
2022/10/06 06:10:11;;;;;;;5.83;2.20;;;;;;;12.28;84.14;101297.78;5102276;28;20475;-68
2022/10/06 06:12:38;;;;;;;8.80;1.80;;;;;;;12.34;83.61;101299.13;5101790;28;20509;-69
2022/10/06 06:17:51;;;;;;;7.47;2.00;;;;;;;13.81;77.48;101306.34;5101851;28;20455;-68
2022/10/06 06:20:17;;;;;;;10.20;2.00;;;;;;;14.75;72.78;101306.00;5101965;28;20491;-68
2022/10/06 06:22:44;;;;;;;8.90;1.57;;;;;;;15.75;68.44;101316.31;5087536;28;20484;-69
2022/10/06 06:25:11;;;;;;;7.70;1.80;;;;;;;15.53;67.30;101316.63;5082409;28;20498;-68
2022/10/06 06:27:41;;;;;;;10.07;2.07;;;;;;;15.87;67.27;101316.13;5082194;28;20432;-68
2022/10/06 06:30:08;;;;;;;7.50;1.80;;;;;;;16.12;64.88;101318.09;5088946;28;20451;-68
2022/10/06 06:32:35;;;;;;;10.27;1.93;;;;;;;16.78;63.06;101310.69;5102332;28;20536;-68
2022/10/06 06:35:04;;;;;;;6.40;2.00;;;;;;;16.70;62.24;101321.41;5102290;28;20453;-68
2022/10/06 06:37:31;;;;;;;11.40;2.10;;;;;;;16.51;62.52;101325.13;5100462;28;20487;-68
2022/10/06 06:39:57;;;;;;;8.00;2.33;;;;;;;16.67;62.74;101330.66;5097724;28;20464;-68
2022/10/06 06:42:24;;;;;;;6.50;1.80;;;;;;;16.85;62.00;101330.69;5101058;28;21021;-67
2022/10/06 06:44:51;;;;;;;7.03;1.97;;;;;;;17.11;59.89;101336.13;5101139;28;20527;-68
2022/10/06 06:47:17;;;;;;;8.97;3.00;;;;;;;17.43;59.20;101340.09;5101966;28;20558;-69
2022/10/06 06:49:46;;;;;;;7.17;1.50;;;;;;;17.49;58.48;101350.25;5090766;28;20459;-67
2022/10/06 06:52:14;;;;;;;8.40;2.17;;;;;;;17.85;57.29;101344.72;5080730;28;20479;-67
2022/10/06 06:54:41;;;;;;;10.60;2.70;;;;;;;16.78;61.17;101351.19;5081839;28;20586;-68
2022/10/06 06:57:08;;;;;;;4.80;1.83;;;;;;;17.83;57.29;101357.56;5080947;28;20492;-68
2022/10/06 06:59:37;;;;;;;8.63;1.93;;;;;;;16.65;60.43;101366.94;5090323;28;20470;-69
2022/10/06 07:02:03;;;;;;;7.33;1.77;;;;;;;18.04;56.61;101367.19;5100953;28;20472;-67
2022/10/06 07:04:31;;;;;;;9.50;2.50;;;;;;;17.77;57.69;101363.63;5101398;28;20473;-67
2022/10/06 07:06:58;;;;;;;9.30;2.37;;;;;;;17.93;56.96;101370.16;5100334;28;20483;-68
2022/10/06 07:09:26;;;;;;;7.87;1.77;;;;;;;18.27;55.16;101372.00;5100602;28;20490;-68
2022/10/06 07:11:53;;;;;;;12.07;3.53;;;;;;;17.90;56.74;101386.72;5101034;28;20510;-68
2022/10/06 07:14:21;;;;;;;6.23;2.10;;;;;;;18.88;53.58;101394.38;5100005;28;21189;-67
2022/10/06 07:25:15;;;;;;;11.17;2.73;;;;;;;19.96;50.53;101406.88;5101775;28;20493;-68
2022/10/06 07:27:43;;;;;;;8.20;1.77;;;;;;;18.21;54.54;101409.53;5100759;28;20479;-69
2022/10/06 07:30:13;;;;;;;6.33;2.00;;;;;;;19.31;52.22;101417.59;5100226;28;20460;-69
2022/10/06 07:32:40;;;;;;;6.20;1.80;;;;;;;19.07;52.36;101425.72;5101070;28;20459;-68
2022/10/06 07:35:07;;;;;;;9.70;1.83;;;;;;;18.63;53.73;101424.09;5100745;28;21368;-68
2022/10/06 07:37:35;;;;;;;8.93;1.90;;;;;;;19.71;51.24;101424.00;5100940;28;20456;-68
2022/10/06 07:40:05;;;;;;;6.43;2.07;;;;;;;20.92;47.32;101430.22;5099843;28;20466;-69
2022/10/06 07:42:46;;;;;;;8.77;2.30;;;;;;;21.41;45.82;101439.88;5099792;28;20475;-69
2022/10/06 07:47:59;;;;;;;6.47;1.80;;;;;;;19.18;50.60;101447.06;5100458;28;20438;-69
2022/10/06 07:50:26;;;;;;;8.50;2.53;;;;;;;19.50;50.44;101451.66;5099014;28;20480;-68
2022/10/06 07:52:52;;;;;;;8.20;2.30;;;;;;;19.63;50.40;101447.59;5100316;28;20517;-68
2022/10/06 07:55:20;;;;;;;12.60;2.83;;;;;;;20.94;47.71;101458.06;5099833;28;20443;-68
2022/10/06 07:57:49;;;;;;;8.00;2.13;;;;;;;19.73;50.18;101456.41;5100079;28;20433;-69
2022/10/06 08:00:19;;;;;;;12.20;2.70;;;;;;;19.55;50.51;101464.75;5098995;28;20461;-68
2022/10/06 08:02:46;;;;;;;7.20;2.07;;;;;;;19.57;50.27;101477.09;5100504;28;20458;-70
2022/10/06 08:05:15;;;;;;;10.60;2.40;;;;;;;18.02;54.94;101464.75;5099378;28;20893;-67
2022/10/06 08:07:41;;;;;;;12.57;2.00;;;;;;;20.44;48.73;101471.00;5100085;28;20464;-68
2022/10/06 08:10:11;;;;;;;10.00;1.90;;;;;;;21.53;45.74;101484.72;5099886;28;20956;-69
2022/10/06 08:12:40;;;;;;;9.10;2.00;;;;;;;19.93;48.58;101474.06;5099046;28;20498;-68
2022/10/06 08:15:10;;;;;;;8.13;2.07;;;;;;;20.94;46.15;101485.25;5099045;28;20470;-65
2022/10/06 08:17:38;;;;;;;6.60;2.40;;;;;;;20.64;48.20;101487.78;5100179;28;20537;-69
2022/10/06 08:20:07;;;;;;;9.30;2.57;;;;;;;21.22;45.84;101487.47;5098297;28;20863;-70
2022/10/06 08:22:35;;;;;;;8.47;2.70;;;;;;;19.76;48.33;101494.09;5100251;28;20493;-69
2022/10/06 08:25:02;;;;;;;10.93;2.97;;;;;;;20.43;46.97;101492.91;5100350;28;20478;-68
2022/10/06 08:27:29;;;;;;;12.30;1.97;;;;;;;20.20;47.52;101493.66;5099161;28;21101;-69
2022/10/06 08:29:57;;;;;;;5.23;2.00;;;;;;;21.92;44.20;101497.28;5099120;28;20820;-68
2022/10/06 08:32:24;;;;;;;9.37;2.53;;;;;;;23.23;41.11;101508.53;5099740;28;20509;-68
2022/10/06 08:34:51;;;;;;;7.37;2.40;;;;;;;21.41;44.29;101508.75;5099601;28;20486;-68
2022/10/06 08:37:22;;;;;;;13.10;2.30;;;;;;;20.85;45.35;101510.81;5099492;28;20497;-68
2022/10/06 08:39:49;;;;;;;12.00;2.10;;;;;;;20.98;45.97;101516.50;5099614;28;20456;-68
2022/10/06 08:42:20;;;;;;;8.30;2.30;;;;;;;20.67;46.33;101509.16;5098967;28;20471;-66
2022/10/06 08:44:48;;;;;;;7.80;2.03;;;;;;;20.83;45.70;101519.13;5099552;28;20976;-67
2022/10/06 08:47:19;;;;;;;10.77;2.43;;;;;;;21.07;44.97;101517.28;5099539;28;20506;-68
2022/10/06 08:49:47;;;;;;;5.87;2.07;;;;;;;22.23;42.64;101522.69;5099325;28;20545;-68
2022/10/06 08:52:24;;;;;;;6.33;1.63;;;;;;;20.61;45.52;101526.16;5098844;28;20521;-67
2022/10/06 08:54:58;;;;;;;7.57;2.33;;;;;;;21.79;43.26;101538.75;5099950;28;20458;-68
2022/10/06 08:57:33;;;;;;;6.40;2.40;;;;;;;21.88;42.34;101546.84;5097418;28;20524;-69
2022/10/06 09:00:00;;;;;;;6.03;2.10;;;;;;;22.28;42.20;101539.34;5099406;28;20467;-69
2022/10/06 09:02:31;;;;;;;8.27;1.90;;;;;;;22.59;41.53;101532.88;5098727;28;20557;-68
2022/10/06 09:05:01;;;;;;;10.97;1.97;;;;;;;22.01;42.02;101547.06;5098982;28;20515;-69
2022/10/06 09:07:34;;;;;;;7.33;1.70;;;;;;;20.86;43.62;101535.06;5098879;28;20508;-69
2022/10/06 09:10:15;;;;;;;11.83;3.60;;;;;;;21.30;43.54;101554.53;5099526;28;20482;-69
2022/10/06 09:12:45;;;;;;;8.10;2.40;;;;;;;20.84;43.65;101544.44;5098586;28;20471;-69
2022/10/06 09:15:23;;;;;;;7.40;1.80;;;;;;;20.45;44.68;101554.22;5099010;28;20478;-68
2022/10/06 09:17:56;;;;;;;9.27;1.83;;;;;;;21.78;42.33;101560.72;5098632;28;20454;-69
2022/10/06 09:20:29;;;;;;;7.20;1.70;;;;;;;21.12;43.15;101557.56;5098059;28;20489;-69
2022/10/06 09:22:56;;;;;;;9.60;1.90;;;;;;;22.07;40.89;101561.84;5099259;28;20460;-69
2022/10/06 09:25:25;;;;;;;7.00;1.83;;;;;;;22.63;40.39;101558.72;5078505;28;20976;-69
2022/10/06 09:27:54;;;;;;;7.83;2.40;;;;;;;22.76;39.42;101558.91;5095390;28;20458;-69
2022/10/06 09:30:21;;;;;;;6.73;1.63;;;;;;;24.34;36.64;101564.53;5098574;28;20482;-69
2022/10/06 09:32:52;;;;;;;7.17;2.13;;;;;;;23.29;38.87;101567.75;5102843;28;20458;-69
2022/10/06 09:35:20;;;;;;;8.43;1.90;;;;;;;23.63;37.55;101581.78;5101822;28;21197;-68
2022/10/06 09:37:55;;;;;;;8.27;1.93;;;;;;;22.81;38.61;101580.13;5102831;28;20493;-68
2022/10/06 09:40:37;;;;;;;6.20;1.63;;;;;;;23.01;38.20;101591.31;5102750;28;20461;-69
2022/10/06 09:43:07;;;;;;;6.80;1.37;;;;;;;22.03;39.19;101583.16;5103107;28;20508;-69
2022/10/06 09:45:33;;;;;;;8.60;1.60;;;;;;;22.34;38.34;101591.22;5100800;28;20478;-68
2022/10/06 09:48:13;;;;;;;8.17;1.83;;;;;;;21.70;40.04;101590.72;5102995;28;20469;-69
2022/10/06 09:50:39;;;;;;;7.60;1.80;;;;;;;22.12;39.45;101589.38;5102589;28;20492;-69
2022/10/06 09:53:15;;;;;;;7.73;1.73;;;;;;;22.44;37.66;101588.22;5102289;28;20500;-69
2022/10/06 09:55:44;;;;;;;10.30;2.50;;;;;;;22.92;38.38;101576.94;5100441;28;20783;-69
2022/10/06 09:58:33;;;;;;;6.50;1.70;;;;;;;23.52;36.62;101582.28;5103206;28;20458;-69
2022/10/06 10:01:01;;;;;;;8.53;1.90;;;;;;;24.29;35.55;101583.44;5101839;28;20483;-69
2022/10/06 10:03:43;;;;;;;6.20;2.10;;;;;;;22.96;37.82;101580.13;5101767;28;20459;-69
2022/10/06 10:06:21;;;;;;;6.80;1.77;;;;;;;23.11;37.52;101602.81;5102431;28;20477;-69
2022/10/06 10:08:47;;;;;;;5.53;1.80;;;;;;;20.79;41.33;101598.47;5102810;28;20482;-68
2022/10/06 10:14:04;;;;;;;12.30;1.90;;;;;;;19.67;43.65;101606.28;5102038;28;20480;-68
2022/10/06 10:16:33;;;;;;;11.40;2.07;;;;;;;20.53;42.22;101599.53;5102134;28;20502;-69
2022/10/06 10:19:01;;;;;;;5.00;1.50;;;;;;;21.21;39.96;101603.56;5101705;28;20490;-69
2022/10/06 10:21:32;;;;;;;8.47;1.80;;;;;;;22.32;38.42;101603.31;5101541;28;20496;-68
2022/10/06 10:23:59;;;;;;;11.27;2.10;;;;;;;20.56;42.15;101593.75;5101438;28;21063;-69
2022/10/06 10:26:37;;;;;;;10.20;2.10;;;;;;;20.56;41.44;101596.47;5101356;28;20503;-69
2022/10/06 10:29:13;;;;;;;5.70;1.90;;;;;;;20.59;41.59;101603.41;5099624;28;20454;-68
2022/10/06 10:31:48;;;;;;;10.03;1.77;;;;;;;19.06;45.15;101614.63;5101525;28;20485;-69
2022/10/06 10:34:26;;;;;;;7.10;2.00;;;;;;;19.72;44.57;101604.81;5099159;28;20488;-67
2022/10/06 10:36:56;;;;;;;4.83;1.43;;;;;;;19.35;45.23;101606.06;5099349;28;20499;-69
2022/10/06 10:39:29;;;;;;;7.63;1.60;;;;;;;19.00;45.21;101607.13;5101910;28;20445;-69
2022/10/06 10:41:57;;;;;;;4.47;1.23;;;;;;;20.38;43.78;101612.09;5099986;28;20928;-69
2022/10/06 10:44:29;;;;;;;5.73;1.40;;;;;;;20.72;40.74;101616.50;5100932;28;20883;-69
2022/10/06 10:47:05;;;;;;;5.30;1.80;;;;;;;21.74;39.58;101617.38;5101602;28;20495;-68
2022/10/06 10:49:34;;;;;;;10.13;1.70;;;;;;;22.02;39.20;101619.56;5100454;28;20453;-68
2022/10/06 10:52:07;;;;;;;12.50;3.30;;;;;;;22.30;38.15;101619.00;5098845;28;20490;-69
2022/10/06 10:54:37;;;;;;;6.13;1.67;;;;;;;22.69;36.99;101626.97;5101244;28;20486;-68
2022/10/06 10:57:04;;;;;;;5.70;1.20;;;;;;;21.92;37.47;101611.63;5100409;28;20470;-69
2022/10/06 10:59:35;;;;;;;7.00;1.70;;;;;;;22.64;36.86;101631.31;5101117;28;20458;-69
2022/10/06 11:02:05;;;;;;;7.03;1.63;;;;;;;23.00;36.64;101616.88;5098133;28;20502;-70
2022/10/06 11:04:34;;;;;;;7.40;1.90;;;;;;;23.11;35.51;101630.09;5100929;28;20451;-69
2022/10/06 11:07:12;;;;;;;5.30;1.57;;;;;;;23.54;35.33;101621.16;5098529;28;20501;-69
2022/10/06 11:09:45;;;;;;;10.70;2.00;;;;;;;22.93;36.90;101619.53;5097173;28;20482;-69
2022/10/06 11:12:17;;;;;;;6.13;1.70;;;;;;;23.06;35.81;101625.19;5101045;28;20505;-67
2022/10/06 11:14:54;;;;;;;8.00;2.23;;;;;;;22.34;35.30;101623.91;5098128;28;20447;-68
2022/10/06 11:17:43;;;;;;;5.63;1.33;;;;;;;22.46;35.70;101616.13;5100452;28;20508;-69
2022/10/06 11:20:38;;;;;;;10.73;2.03;;;;;;;23.14;35.03;101618.81;5099917;28;20465;-68
2022/10/06 11:23:21;;;;;;;7.83;1.73;;;;;;;23.45;34.00;101623.16;5098483;28;20463;-69
2022/10/06 11:25:53;;;;;;;4.60;1.30;;;;;;;22.09;36.71;101634.16;5079995;28;20607;-69
2022/10/06 11:28:23;;;;;;;7.47;2.30;;;;;;;22.46;36.70;101637.09;5083653;28;20501;-68
2022/10/06 11:30:58;;;;;;;8.63;1.90;;;;;;;21.76;36.75;101637.09;5100451;28;20502;-68
2022/10/06 11:33:29;;;;;;;7.00;1.63;;;;;;;22.84;34.62;101618.78;5100175;28;20489;-69
2022/10/06 11:35:57;;;;;;;10.73;1.90;;;;;;;22.67;34.88;101626.31;5100711;28;20474;-68
2022/10/06 11:38:27;;;;;;;6.23;1.60;;;;;;;21.94;36.23;101635.97;5101397;28;20430;-68
2022/10/06 11:41:08;;;;;;;5.83;1.63;;;;;;;22.42;34.91;101627.59;5099399;28;20497;-68
2022/10/06 11:43:40;;;;;;;3.30;1.20;;;;;;;21.37;37.66;101613.53;5100942;28;20511;-69
2022/10/06 11:46:20;;;;;;;7.70;1.83;;;;;;;20.96;37.64;101618.31;5100336;28;20499;-69
2022/10/06 11:48:47;;;;;;;6.30;1.30;;;;;;;20.91;37.77;101617.97;5100466;28;20426;-68